createdAt,value
2022-08-30T00:00:40.807Z,62.98
2022-08-30T00:03:11.088Z,61.64
2022-08-30T00:05:39.744Z,58.49
2022-08-30T00:08:08.192Z,59.25
2022-08-30T00:10:37.030Z,62.52
2022-08-30T00:13:07.029Z,63.66
2022-08-30T00:15:35.193Z,61.17
2022-08-30T00:18:03.466Z,59.52
2022-08-30T00:20:33.386Z,59.55
2022-08-30T00:23:01.989Z,62.35
2022-08-30T00:25:30.860Z,63.35
2022-08-30T00:27:58.865Z,61.29
2022-08-30T00:30:26.792Z,60.27
2022-08-30T00:32:54.685Z,58.59
2022-08-30T00:35:23.245Z,61.45
2022-08-30T00:37:51.835Z,63.39
2022-08-30T00:40:24.844Z,61.34
2022-08-30T00:43:05.623Z,59.75
2022-08-30T00:45:36.080Z,59.04
2022-08-30T00:48:05.897Z,60.11
2022-08-30T00:50:48.508Z,63.37
2022-08-30T00:53:21.815Z,61.96
2022-08-30T00:55:50.666Z,59.83
2022-08-30T00:58:22.761Z,59.06
2022-08-30T01:00:54.013Z,62.39
2022-08-30T01:03:22.423Z,63.93
2022-08-30T01:05:51.871Z,62.05
2022-08-30T01:08:22.494Z,60.54
2022-08-30T01:10:53.476Z,58.72
2022-08-30T01:13:23.709Z,59.60
2022-08-30T01:15:52.134Z,61.89
2022-08-30T01:18:24.129Z,64.94
2022-08-30T01:21:21.254Z,63.34
2022-08-30T01:23:53.851Z,60.40
2022-08-30T01:26:22.340Z,57.95
2022-08-30T01:28:55.517Z,59.47
2022-08-30T01:31:23.729Z,63.15
2022-08-30T01:33:51.738Z,63.38
2022-08-30T01:36:21.104Z,60.01
2022-08-30T01:38:52.580Z,57.95
2022-08-30T01:41:26.656Z,56.95
2022-08-30T01:43:59.235Z,58.02
2022-08-30T01:46:30.802Z,64.39
2022-08-30T01:48:58.811Z,64.23
2022-08-30T01:51:28.525Z,60.81
2022-08-30T01:53:57.755Z,56.86
2022-08-30T01:56:27.736Z,56.77
2022-08-30T01:59:01.814Z,61.00
2022-08-30T02:01:33.726Z,65.36
2022-08-30T02:04:02.625Z,63.10
2022-08-30T02:06:30.767Z,60.78
2022-08-30T02:08:59.087Z,58.84
2022-08-30T02:11:27.049Z,61.05
2022-08-30T02:13:55.081Z,63.45
2022-08-30T02:16:24.970Z,63.15
2022-08-30T02:18:54.477Z,62.19
2022-08-30T02:21:22.436Z,58.49
2022-08-30T02:23:52.066Z,60.31
2022-08-30T02:26:20.610Z,63.07
2022-08-30T02:28:50.424Z,61.98
2022-08-30T02:31:20.799Z,59.64
2022-08-30T02:33:54.308Z,58.96
2022-08-30T02:36:23.107Z,62.23
2022-08-30T02:38:52.184Z,63.50
2022-08-30T02:41:20.981Z,61.83
2022-08-30T02:43:49.674Z,58.79
2022-08-30T02:46:18.228Z,60.13
2022-08-30T02:48:46.283Z,63.38
2022-08-30T02:51:14.472Z,62.35
2022-08-30T02:53:44.037Z,60.79
2022-08-30T02:56:14.522Z,59.29
2022-08-30T02:58:44.631Z,62.02
2022-08-30T03:01:15.365Z,63.78
2022-08-30T03:03:45.820Z,62.06
2022-08-30T03:06:14.755Z,60.32
2022-08-30T03:08:42.850Z,59.26
2022-08-30T03:11:13.800Z,60.16
2022-08-30T03:13:41.982Z,63.26
2022-08-30T03:16:10.125Z,62.87
2022-08-30T03:18:38.154Z,61.47
2022-08-30T03:21:14.677Z,59.62
2022-08-30T03:23:43.048Z,59.42
2022-08-30T03:26:13.366Z,62.48
2022-08-30T03:28:42.776Z,63.03
2022-08-30T03:31:12.158Z,61.38
2022-08-30T03:33:40.701Z,59.79
2022-08-30T03:36:09.468Z,58.86
2022-08-30T03:38:38.642Z,60.78
2022-08-30T03:41:07.495Z,63.32
2022-08-30T03:43:37.370Z,63.56
2022-08-30T03:46:05.450Z,60.46
2022-08-30T03:48:33.432Z,55.86
2022-08-30T03:51:02.514Z,54.76
2022-08-30T03:53:34.665Z,61.04
2022-08-30T03:56:04.063Z,64.77
2022-08-30T03:58:32.941Z,62.54
2022-08-30T04:01:00.979Z,61.62
2022-08-30T04:03:29.481Z,57.90
2022-08-30T04:05:57.619Z,59.06
2022-08-30T04:08:25.736Z,62.46
2022-08-30T04:10:56.356Z,65.05
2022-08-30T04:13:25.194Z,62.38
2022-08-30T04:15:53.163Z,59.32
2022-08-30T04:18:21.748Z,58.72
2022-08-30T04:20:51.521Z,61.40
2022-08-30T04:23:20.210Z,63.31
2022-08-30T04:25:48.417Z,61.50
2022-08-30T04:28:16.315Z,58.92
2022-08-30T04:30:46.017Z,59.49
2022-08-30T04:33:15.434Z,61.98
2022-08-30T04:35:45.893Z,63.34
2022-08-30T04:38:14.991Z,61.24
2022-08-30T04:40:44.273Z,58.73
2022-08-30T04:43:13.336Z,60.38
2022-08-30T04:45:42.526Z,63.10
2022-08-30T04:48:10.646Z,62.60
2022-08-30T04:50:38.604Z,60.30
2022-08-30T04:53:13.889Z,58.38
2022-08-30T04:55:44.724Z,59.55
2022-08-30T04:58:12.681Z,62.71
2022-08-30T05:00:44.186Z,63.90
2022-08-30T05:03:12.888Z,62.52
2022-08-30T05:05:40.987Z,60.63
2022-08-30T05:08:12.001Z,58.08
2022-08-30T05:10:44.415Z,57.98
2022-08-30T05:13:13.310Z,60.50
2022-08-30T05:15:41.605Z,65.75
2022-08-30T05:18:13.320Z,65.84
2022-08-30T05:20:43.509Z,61.34
2022-08-30T05:23:11.918Z,57.77
2022-08-30T05:25:42.669Z,57.79
2022-08-30T05:28:10.708Z,60.44
2022-08-30T05:30:38.717Z,65.32
2022-08-30T05:33:06.806Z,64.44
2022-08-30T05:35:34.837Z,60.52
2022-08-30T05:38:02.770Z,57.89
2022-08-30T05:40:30.842Z,59.13
2022-08-30T05:43:00.158Z,61.45
2022-08-30T05:45:28.093Z,65.67
2022-08-30T05:47:56.491Z,65.57
2022-08-30T05:50:24.410Z,61.96
2022-08-30T05:52:52.378Z,61.31
2022-08-30T05:55:21.348Z,58.26
2022-08-30T05:57:49.319Z,58.95
2022-08-30T06:00:18.711Z,60.48
2022-08-30T06:02:46.906Z,65.40
2022-08-30T06:05:15.040Z,64.51
2022-08-30T06:07:46.818Z,60.64
2022-08-30T06:10:15.425Z,56.71
2022-08-30T06:12:45.318Z,58.70
2022-08-30T06:15:13.230Z,60.49
2022-08-30T06:17:41.202Z,65.04
2022-08-30T06:20:09.921Z,63.35
2022-08-30T06:22:39.086Z,60.14
2022-08-30T06:25:07.582Z,57.10
2022-08-30T06:27:35.524Z,59.45
2022-08-30T06:30:08.336Z,62.95
2022-08-30T06:32:36.932Z,63.49
2022-08-30T06:35:06.677Z,59.58
2022-08-30T06:37:35.271Z,57.48
2022-08-30T06:40:04.493Z,59.52
2022-08-30T06:42:33.735Z,61.43
2022-08-30T06:45:02.504Z,64.65
2022-08-30T06:47:40.246Z,62.81
2022-08-30T06:50:12.098Z,60.02
2022-08-30T06:52:42.632Z,56.97
2022-08-30T06:55:12.895Z,59.51
2022-08-30T06:57:41.079Z,60.06
2022-08-30T07:00:12.693Z,62.84
2022-08-30T07:02:41.197Z,63.43
2022-08-30T07:05:14.289Z,59.67
2022-08-30T07:07:46.239Z,57.28
2022-08-30T07:10:15.503Z,58.49
2022-08-30T07:12:43.458Z,61.63
2022-08-30T07:15:12.100Z,63.42
2022-08-30T07:17:59.009Z,58.68
2022-08-30T07:20:27.192Z,57.34
2022-08-30T07:22:55.161Z,60.08
2022-08-30T07:25:23.109Z,64.09
2022-08-30T07:27:52.212Z,62.03
2022-08-30T07:30:20.461Z,59.80
2022-08-30T07:32:49.044Z,57.58
2022-08-30T07:35:17.081Z,58.29
2022-08-30T07:37:44.994Z,60.34
2022-08-30T07:40:13.283Z,61.99
2022-08-30T07:42:41.309Z,62.83
2022-08-30T07:45:10.757Z,60.47
2022-08-30T07:47:39.095Z,56.38
2022-08-30T07:50:07.934Z,56.55
2022-08-30T07:55:10.145Z,61.81
2022-08-30T07:57:38.248Z,63.55
2022-08-30T08:00:07.242Z,60.22
2022-08-30T08:02:40.959Z,57.99
2022-08-30T08:05:13.873Z,58.64
2022-08-30T08:07:43.333Z,61.05
2022-08-30T08:10:11.600Z,63.04
2022-08-30T08:12:40.886Z,61.04
2022-08-30T08:15:09.269Z,57.86
2022-08-30T08:17:37.356Z,56.76
2022-08-30T08:20:05.853Z,58.51
2022-08-30T08:22:36.842Z,59.07
2022-08-30T08:25:08.179Z,60.27
2022-08-30T08:27:36.105Z,62.75
2022-08-30T08:30:05.180Z,59.22
2022-08-30T08:32:33.184Z,57.32
2022-08-30T08:35:01.280Z,58.30
2022-08-30T08:37:29.291Z,59.80
2022-08-30T08:39:57.352Z,60.82
2022-08-30T08:42:50.332Z,60.35
2022-08-30T08:45:32.444Z,61.65
2022-08-30T08:48:17.159Z,61.09
2022-08-30T08:51:07.375Z,61.06
2022-08-30T08:53:45.370Z,61.77
2022-08-30T08:56:17.756Z,63.45
2022-08-30T08:58:49.175Z,60.14
2022-08-30T09:01:22.074Z,56.98
2022-08-30T09:03:51.571Z,58.19
2022-08-30T09:06:25.264Z,59.31
2022-08-30T09:08:53.189Z,60.27
2022-08-30T09:11:28.841Z,61.44
2022-08-30T09:13:56.948Z,61.79
2022-08-30T09:16:52.269Z,62.45
2022-08-30T09:19:57.180Z,60.47
2022-08-30T09:22:33.824Z,56.64
2022-08-30T09:25:02.003Z,56.37
2022-08-30T09:27:50.992Z,58.53
2022-08-30T09:30:28.360Z,59.27
2022-08-30T09:32:57.867Z,58.21
2022-08-30T09:35:38.451Z,58.01
2022-08-30T09:38:06.261Z,58.81
2022-08-30T09:40:41.808Z,59.74
2022-08-30T09:43:24.308Z,58.82
2022-08-30T09:46:02.903Z,58.38
2022-08-30T09:48:40.761Z,57.35
2022-08-30T09:51:21.735Z,57.92
2022-08-30T09:54:17.115Z,58.86
2022-08-30T09:56:51.081Z,59.59
2022-08-30T09:59:48.867Z,60.53
2022-08-30T10:02:36.056Z,58.95
2022-08-30T10:05:09.902Z,57.66
2022-08-30T10:08:19.362Z,57.36
2022-08-30T10:10:56.155Z,57.67
2022-08-30T10:13:33.611Z,55.70
2022-08-30T10:16:16.649Z,54.81
2022-08-30T10:19:01.773Z,55.03
2022-08-30T10:21:39.496Z,55.25
2022-08-30T10:24:13.070Z,55.01
2022-08-30T10:27:23.148Z,55.36
2022-08-30T10:29:59.572Z,55.94
2022-08-30T10:33:05.143Z,57.52
2022-08-30T10:35:44.985Z,56.48
2022-08-30T10:38:32.248Z,55.68
2022-08-30T10:41:29.571Z,55.08
2022-08-30T10:44:17.754Z,52.40
2022-08-30T10:47:23.773Z,51.59
2022-08-30T10:50:03.775Z,51.61
2022-08-30T10:52:42.082Z,51.63
2022-08-30T10:55:16.057Z,51.35
2022-08-30T10:57:45.362Z,51.50
2022-08-30T11:00:22.927Z,51.72
2022-08-30T11:03:16.080Z,51.56
2022-08-30T11:06:01.354Z,51.68
2022-08-30T11:08:48.047Z,52.83
2022-08-30T11:11:35.769Z,54.13
2022-08-30T11:14:06.337Z,54.50
2022-08-30T11:16:48.481Z,53.24
2022-08-30T11:19:38.278Z,52.83
2022-08-30T11:22:15.332Z,53.13
2022-08-30T11:25:14.483Z,52.95
2022-08-30T11:27:47.091Z,52.73
2022-08-30T11:30:26.715Z,51.12
2022-08-30T11:33:25.416Z,51.57
2022-08-30T11:35:54.485Z,51.32
2022-08-30T11:38:29.203Z,51.20
2022-08-30T11:40:58.790Z,51.31
2022-08-30T11:43:36.793Z,50.81
2022-08-30T11:46:26.889Z,46.98
2022-08-30T11:49:06.216Z,47.79
2022-08-30T11:52:23.740Z,48.08
2022-08-30T11:55:01.531Z,49.15
2022-08-30T11:57:45.852Z,47.85
2022-08-30T12:00:35.380Z,45.55
2022-08-30T12:03:14.298Z,46.01
2022-08-30T12:05:51.947Z,46.42
2022-08-30T12:08:19.925Z,47.74
2022-08-30T12:10:57.142Z,48.08
2022-08-30T12:13:34.419Z,48.05
2022-08-30T12:16:12.743Z,48.35
2022-08-30T12:18:51.687Z,47.38
2022-08-30T12:21:22.584Z,47.23
2022-08-30T12:23:58.913Z,47.66
2022-08-30T12:26:34.228Z,47.71
2022-08-30T12:29:13.366Z,47.67
2022-08-30T12:32:03.410Z,46.94
2022-08-30T12:34:50.699Z,45.31
2022-08-30T12:37:23.292Z,45.25
2022-08-30T12:40:04.687Z,45.76
2022-08-30T12:42:51.214Z,44.57
2022-08-30T12:45:22.551Z,43.04
2022-08-30T12:48:01.943Z,42.82
2022-08-30T12:50:35.906Z,43.20
2022-08-30T12:53:13.748Z,42.11
2022-08-30T12:56:02.186Z,42.33
2022-08-30T12:58:45.747Z,40.00
2022-08-30T13:01:18.717Z,39.42
2022-08-30T13:04:25.661Z,40.30
2022-08-30T13:06:57.255Z,38.85
2022-08-30T13:09:32.620Z,38.71
2022-08-30T13:12:04.509Z,39.52
2022-08-30T13:14:42.322Z,39.97
2022-08-30T13:17:25.438Z,39.78
2022-08-30T13:20:20.059Z,40.54
2022-08-30T13:23:09.667Z,41.90
2022-08-30T13:25:39.867Z,42.87
2022-08-30T13:28:08.518Z,44.08
2022-08-30T13:30:36.566Z,45.30
2022-08-30T13:33:04.687Z,45.95
2022-08-30T13:35:35.956Z,46.87
2022-08-30T13:38:04.398Z,47.42
2022-08-30T13:40:32.580Z,48.21
2022-08-30T13:43:00.585Z,48.56
2022-08-30T13:45:44.183Z,49.20
2022-08-30T13:48:17.297Z,49.80
2022-08-30T13:50:45.662Z,49.88
2022-08-30T13:53:15.324Z,49.35
2022-08-30T13:55:44.387Z,49.11
2022-08-30T13:58:13.358Z,49.27
2022-08-30T14:00:42.546Z,48.73
2022-08-30T14:03:15.914Z,48.09
2022-08-30T14:06:09.948Z,45.91
2022-08-30T14:08:48.137Z,45.71
2022-08-30T14:11:21.128Z,46.01
2022-08-30T14:16:42.733Z,45.41
2022-08-30T14:19:12.617Z,45.00
2022-08-30T14:21:41.329Z,44.70
2022-08-30T14:24:10.400Z,44.73
2022-08-30T14:26:51.379Z,44.24
2022-08-30T14:29:23.901Z,44.74
2022-08-30T14:31:56.691Z,44.57
2022-08-30T14:34:27.911Z,44.17
2022-08-30T14:36:56.878Z,43.98
2022-08-30T14:39:26.322Z,44.05
2022-08-30T14:41:55.920Z,40.71
2022-08-30T14:44:25.354Z,40.63
2022-08-30T14:46:56.411Z,41.72
2022-08-30T14:49:25.027Z,42.84
2022-08-30T14:51:54.940Z,43.77
2022-08-30T14:54:25.964Z,44.42
2022-08-30T14:56:55.268Z,44.70
2022-08-30T14:59:25.593Z,44.90
2022-08-30T15:01:54.797Z,45.53
2022-08-30T15:04:23.214Z,45.72
2022-08-30T15:06:52.649Z,45.79
2022-08-30T15:09:23.893Z,46.40
2022-08-30T15:11:55.221Z,46.49
2022-08-30T15:14:28.065Z,46.61
2022-08-30T15:16:58.381Z,47.15
2022-08-30T15:19:27.009Z,47.55
2022-08-30T15:21:55.383Z,47.92
2022-08-30T15:24:29.547Z,47.96
2022-08-30T15:27:00.297Z,47.15
2022-08-30T15:29:30.656Z,46.46
2022-08-30T15:32:02.170Z,46.61
2022-08-30T15:34:31.837Z,46.01
2022-08-30T15:37:00.359Z,45.45
2022-08-30T15:39:29.531Z,46.26
2022-08-30T15:42:01.006Z,47.20
2022-08-30T15:44:31.511Z,48.09
2022-08-30T15:46:59.603Z,48.61
2022-08-30T15:49:27.871Z,48.75
2022-08-30T15:52:01.111Z,49.17
2022-08-30T15:54:29.489Z,49.09
2022-08-30T15:57:00.538Z,48.25
2022-08-30T15:59:32.525Z,46.87
2022-08-30T16:02:00.637Z,46.15
2022-08-30T16:04:29.659Z,45.99
2022-08-30T16:06:57.656Z,46.52
2022-08-30T16:09:30.219Z,47.33
2022-08-30T16:12:02.261Z,48.31
2022-08-30T16:14:34.953Z,49.19
2022-08-30T16:17:03.107Z,49.84
2022-08-30T16:19:31.805Z,50.43
2022-08-30T16:22:00.289Z,51.29
2022-08-30T16:24:28.353Z,51.59
2022-08-30T16:26:56.378Z,51.26
2022-08-30T16:29:24.346Z,49.86
2022-08-30T16:31:52.311Z,47.89
2022-08-30T16:34:21.108Z,45.68
2022-08-30T16:36:49.167Z,44.55
2022-08-30T16:39:17.619Z,43.25
2022-08-30T16:41:46.661Z,42.31
2022-08-30T16:44:18.553Z,41.87
2022-08-30T16:46:53.134Z,41.54
2022-08-30T16:49:25.403Z,40.90
2022-08-30T16:51:54.319Z,40.24
2022-08-30T16:54:23.798Z,40.14
2022-08-30T16:56:51.947Z,40.38
2022-08-30T16:59:19.913Z,40.93
2022-08-30T17:01:49.221Z,41.36
2022-08-30T17:04:18.838Z,41.66
2022-08-30T17:06:50.195Z,42.16
2022-08-30T17:09:19.697Z,43.12
2022-08-30T17:11:48.711Z,43.82
2022-08-30T17:14:22.997Z,44.64
2022-08-30T17:17:00.715Z,45.52
2022-08-30T17:19:29.715Z,47.05
2022-08-30T17:21:58.442Z,48.46
2022-08-30T17:24:27.659Z,49.94
2022-08-30T17:26:58.267Z,51.30
2022-08-30T17:29:27.276Z,52.78
2022-08-30T17:31:55.758Z,53.73
2022-08-30T17:34:26.579Z,54.92
2022-08-30T17:36:57.334Z,55.88
2022-08-30T17:39:26.631Z,56.78
2022-08-30T17:41:57.789Z,56.95
2022-08-30T17:44:35.382Z,57.39
2022-08-30T17:47:06.036Z,57.84
2022-08-30T17:49:34.245Z,58.57
2022-08-30T17:52:02.872Z,59.30
2022-08-30T17:54:33.266Z,60.02
2022-08-30T17:57:01.865Z,60.56
2022-08-30T17:59:32.760Z,60.93
2022-08-30T18:02:19.018Z,61.58
2022-08-30T18:04:59.166Z,62.65
2022-08-30T18:07:33.179Z,61.69
2022-08-30T18:10:01.800Z,55.79
2022-08-30T18:12:30.258Z,55.81
2022-08-30T18:15:02.312Z,57.55
2022-08-30T18:17:41.800Z,58.81
2022-08-30T18:20:11.336Z,59.78
2022-08-30T18:22:39.768Z,60.44
2022-08-30T18:25:09.155Z,61.17
2022-08-30T18:27:39.080Z,61.62
2022-08-30T18:30:11.448Z,62.67
2022-08-30T18:32:40.075Z,61.39
2022-08-30T18:35:09.894Z,56.64
2022-08-30T18:37:38.126Z,56.51
2022-08-30T18:40:09.725Z,57.77
2022-08-30T18:42:38.456Z,59.34
2022-08-30T18:45:11.480Z,60.28
2022-08-30T18:47:43.366Z,61.53
2022-08-30T18:50:12.794Z,62.88
2022-08-30T18:52:41.158Z,61.96
2022-08-30T18:55:13.504Z,58.18
2022-08-30T18:57:41.961Z,58.09
2022-08-30T19:00:12.166Z,60.00
2022-08-30T19:02:43.474Z,61.37
2022-08-30T19:05:12.417Z,62.63
2022-08-30T19:07:40.917Z,60.22
2022-08-30T19:10:12.219Z,57.51
2022-08-30T19:12:41.087Z,58.72
2022-08-30T19:15:11.610Z,60.11
2022-08-30T19:17:43.389Z,61.21
2022-08-30T19:20:16.148Z,61.75
2022-08-30T19:23:08.591Z,63.02
2022-08-30T19:25:34.051Z,62.21
2022-08-30T19:28:03.209Z,57.11
2022-08-30T19:30:34.373Z,57.35
2022-08-30T19:33:05.749Z,59.52
2022-08-30T19:35:34.698Z,61.18
2022-08-30T19:38:05.286Z,62.50
2022-08-30T19:40:33.651Z,62.99
2022-08-30T19:43:02.417Z,59.10
2022-08-30T19:45:34.546Z,57.73
2022-08-30T19:48:03.094Z,59.22
2022-08-30T19:50:31.361Z,60.52
2022-08-30T19:53:00.023Z,61.28
2022-08-30T19:55:31.294Z,63.95
2022-08-30T19:57:59.985Z,64.08
2022-08-30T20:00:31.054Z,58.51
2022-08-30T20:03:01.455Z,56.40
2022-08-30T20:05:32.176Z,58.36
2022-08-30T20:08:03.352Z,59.41
2022-08-30T20:10:31.700Z,61.35
2022-08-30T20:12:59.874Z,65.44
2022-08-30T20:15:28.056Z,65.20
2022-08-30T20:18:05.575Z,59.84
2022-08-30T20:20:36.561Z,57.99
2022-08-30T20:23:06.004Z,59.97
2022-08-30T20:25:35.150Z,61.00
2022-08-30T20:28:04.721Z,63.56
2022-08-30T20:30:32.836Z,64.28
2022-08-30T20:33:08.486Z,59.44
2022-08-30T20:35:38.536Z,57.20
2022-08-30T20:38:06.669Z,57.96
2022-08-30T20:40:37.781Z,59.17
2022-08-30T20:43:06.946Z,61.43
2022-08-30T20:45:35.519Z,64.50
2022-08-30T20:48:03.882Z,64.46
2022-08-30T20:50:32.296Z,60.10
2022-08-30T20:53:00.592Z,58.13
2022-08-30T20:55:28.496Z,60.07
2022-08-30T20:57:57.005Z,61.27
2022-08-30T21:00:25.051Z,65.05
2022-08-30T21:02:54.810Z,65.41
2022-08-30T21:05:22.969Z,61.81
2022-08-30T21:07:50.902Z,56.45
2022-08-30T21:10:23.243Z,56.54
2022-08-30T21:12:52.328Z,56.89
2022-08-30T21:15:37.171Z,58.19
2022-08-30T21:18:06.113Z,58.65
2022-08-30T21:20:34.297Z,58.98
2022-08-30T21:23:02.336Z,63.44
2022-08-30T21:25:33.317Z,64.81
2022-08-30T21:28:01.389Z,63.18
2022-08-30T21:30:29.366Z,57.78
2022-08-30T21:32:59.985Z,55.71
2022-08-30T21:35:47.557Z,57.82
2022-08-30T21:38:16.584Z,56.38
2022-08-30T21:40:45.061Z,60.71
2022-08-30T21:43:13.014Z,62.25
2022-08-30T21:45:45.172Z,64.87
2022-08-30T21:48:13.855Z,62.32
2022-08-30T21:50:42.969Z,57.46
2022-08-30T21:53:10.964Z,57.36
2022-08-30T21:55:43.691Z,59.55
2022-08-30T21:58:11.798Z,60.59
2022-08-30T22:00:39.761Z,63.22
2022-08-30T22:03:10.200Z,62.37
2022-08-30T22:05:38.392Z,57.70
2022-08-30T22:08:06.505Z,57.60
2022-08-30T22:10:34.451Z,60.17
2022-08-30T22:13:03.642Z,62.50
2022-08-30T22:15:31.777Z,61.15
2022-08-30T22:18:00.879Z,58.75
2022-08-30T22:20:30.607Z,58.49
2022-08-30T22:22:58.866Z,58.61
2022-08-30T22:25:26.913Z,60.01
2022-08-30T22:27:54.875Z,59.72
2022-08-30T22:30:23.063Z,58.43
2022-08-30T22:32:51.492Z,59.66
2022-08-30T22:35:21.661Z,64.70
2022-08-30T22:37:53.354Z,65.34
2022-08-30T22:40:22.460Z,62.13
2022-08-30T22:42:50.506Z,57.33
2022-08-30T22:45:18.693Z,56.36
2022-08-30T22:47:46.703Z,58.63
2022-08-30T22:50:14.782Z,60.62
2022-08-30T22:52:42.819Z,61.65
2022-08-30T22:55:11.131Z,64.38
2022-08-30T22:57:39.937Z,64.14
2022-08-30T23:00:15.176Z,58.87
2022-08-30T23:02:49.394Z,55.89
2022-08-30T23:05:18.588Z,58.12
2022-08-30T23:07:46.850Z,59.28
2022-08-30T23:10:14.905Z,62.30
2022-08-30T23:12:43.234Z,64.61
2022-08-30T23:15:14.501Z,63.13
2022-08-30T23:17:42.502Z,58.69
2022-08-30T23:20:11.171Z,56.65
2022-08-30T23:22:39.209Z,58.87
2022-08-30T23:25:26.614Z,58.26
2022-08-30T23:28:17.485Z,59.44
2022-08-30T23:31:07.769Z,63.03
2022-08-30T23:33:54.389Z,64.10
2022-08-30T23:36:40.999Z,59.59
2022-08-30T23:39:27.700Z,58.85
2022-08-30T23:42:14.515Z,61.44
2022-08-30T23:45:01.057Z,62.85
2022-08-30T23:47:47.832Z,61.05
2022-08-30T23:50:34.515Z,57.55
2022-08-30T23:53:21.101Z,58.73
2022-08-30T23:56:07.579Z,60.94
2022-08-30T23:58:56.271Z,62.96
